Flight Track Log - Related Links

Times and Time Zones

All times are in EDT time to prevent confusion due to time zone crossing. See the N827RD flight status page for this flight to view local times or setup timezone preferences in your user account.

Time Position Orientation Groundspeed Altitude Reporting Facility
EDT Latitude Longitude Course Direction KTS MPH feet Rate Location/Type
Fri 01:51:45 PM 39.0000 -77.4667 38° Northeast 126 145 1,300  Level Potomac TRACON
Fri 01:52:45 PM 39.0333 -77.4500 21° North 136 157 2,100 800 Climbing Potomac TRACON
Fri 01:53:45 PM 39.0667 -77.4500 360° North 141 162 2,900 793 Climbing Potomac TRACON
Fri 01:54:46 PM 39.1167 -77.4500 360° North 140 161 3,700 744 Climbing Potomac TRACON
Fri 01:55:46 PM 39.1333 -77.4000 67° East 151 174 4,400 800 Climbing Potomac TRACON
Fri 01:56:46 PM 39.1333 -77.3500 90° East 145 167 5,300 694 Climbing Potomac TRACON
Fri 01:57:00 PM 39.1574 -77.2260 38° Northeast  Level FlightAware Approximate
Fri 01:57:47 PM 39.1333 -77.3000 90° East 153 176 5,800  Level Potomac TRACON
Fri 01:58:47 PM 39.1500 -77.2500 67° East 147 169 6,600 600 Climbing Potomac TRACON
Fri 01:59:47 PM 39.1833 -77.2000 49° Northeast 160 184 7,000 198 Climbing Potomac TRACON
Fri 02:00:48 PM 39.2000 -77.1500 67° East 175 201 7,000  Level Potomac TRACON
Fri 02:01:48 PM 39.2167 -77.0833 72° East 177 204 7,000  Level Potomac TRACON
Fri 02:02:48 PM 39.2500 -77.0333 49° Northeast 174 200 7,000  Level Potomac TRACON
Fri 02:03:48 PM 39.2667 -76.9833 67° East 180 207 7,000  Level Potomac TRACON
Fri 02:04:48 PM 39.2833 -76.9167 72° East 180 207 7,000  Level Potomac TRACON
Fri 02:05:49 PM 39.2833 -76.8667 90° East 178 205 7,000  Level Potomac TRACON
Fri 02:06:49 PM 39.3000 -76.8000 72° East 177 204 7,000  Level Potomac TRACON
Fri 02:07:49 PM 39.2833 -76.7333 108° East 177 204 7,000  Level Potomac TRACON
Fri 02:08:50 PM 39.2833 -76.6833 90° East 184 212 7,000  Level Potomac TRACON
Fri 02:09:50 PM 39.2500 -76.6167 123° Southeast 187 215 7,000  Level Potomac TRACON
Fri 02:10:50 PM 39.2167 -76.5667 131° Southeast 184 212 7,000  Level Potomac TRACON
Fri 02:11:51 PM 39.2000 -76.5167 113° Southeast 184 212 7,000  Level Potomac TRACON
Fri 02:12:51 PM 39.1833 -76.4500 108° East 179 206 7,000  Level Potomac TRACON
Fri 02:13:51 PM 39.1500 -76.4000 131° Southeast 179 206 7,000  Level Potomac TRACON
Fri 02:14:52 PM 39.1333 -76.3333 108° East 179 206 7,000  Level Potomac TRACON
Fri 02:15:52 PM 39.1167 -76.2667 108° East 181 208 7,000  Level Potomac TRACON
Fri 02:16:52 PM 39.1000 -76.2167 113° Southeast 182 209 7,000  Level Potomac TRACON
Fri 02:17:52 PM 39.0667 -76.1500 123° Southeast 184 212 7,000  Level Potomac TRACON
Fri 02:18:53 PM 39.0500 -76.1000 113° Southeast 180 207 7,000  Level Potomac TRACON
Fri 02:19:53 PM 39.0500 -76.0333 90° East 176 203 7,000 16 Level Potomac TRACON
Fri 02:21:00 PM 39.0500 -75.9651 90° East  Level FlightAware Approximate
Fri 02:28:00 PM 39.0560 -75.5373 87° East  Level FlightAware Approximate
Fri 02:29:00 PM 39.0588 -75.4763 87° East  Level FlightAware Approximate
Fri 02:30:00 PM 39.0615 -75.4154 87° East  Level FlightAware Approximate
Fri 02:31:00 PM 39.0643 -75.3545 87° East  Level FlightAware Approximate
Fri 02:32:00 PM 39.0667 -75.2936 90° East  Level FlightAware Approximate
Fri 02:33:00 PM 39.0667 -75.2326 90° East  Level FlightAware Approximate
Fri 02:34:00 PM 39.0667 -75.1716 90° East  Level FlightAware Approximate
Fri 02:35:00 PM 39.0693 -75.1107 87° East  Level FlightAware Approximate
Fri 02:36:00 PM 39.0721 -75.0499 87° East  Level FlightAware Approximate
Fri 02:37:00 PM 39.0749 -74.9890 87° East  Level FlightAware Approximate
Fri 02:38:00 PM 39.0776 -74.9281 87° East  Level FlightAware Approximate
Fri 02:39:00 PM 39.0804 -74.8672 87° East  Level FlightAware Approximate
Fri 02:40:00 PM 39.0831 -74.8063 87° East  Level FlightAware Approximate
Fri 02:41:00 PM 39.1097 -74.7571 52° Northeast  Level FlightAware Approximate
Fri 02:42:00 PM 39.1390 -74.7092 52° Northeast  Level FlightAware Approximate
Fri 02:43:00 PM 39.1683 -74.6612 52° Northeast  Level FlightAware Approximate
Fri 02:44:00 PM 39.1977 -74.6133 52° Northeast  Level FlightAware Approximate
Fri 02:45:00 PM 39.2269 -74.5652 52° Northeast  Level FlightAware Approximate
Fri 02:46:00 PM 39.2562 -74.5172 52° Northeast  Level FlightAware Approximate
Fri 02:47:00 PM 39.2868 -74.4706 48° Northeast  Level FlightAware Approximate
Fri 02:48:00 PM 39.3182 -74.4248 48° Northeast  Level FlightAware Approximate
Fri 02:49:00 PM 39.3495 -74.3789 49° Northeast  Level FlightAware Approximate
Fri 02:49:21 PM 39.5625 -74.3711 49° Northeast 175 201 7,500  Level New York Center
Fri 02:50:00 PM 39.3809 -74.3330 49° Northeast  Level FlightAware Approximate
Fri 02:50:18 PM 39.5811 -74.3128 67° East 170 196 7,500  Level New York Center
Fri 02:51:00 PM 39.4122 -74.2871 49° Northeast  Level FlightAware Approximate
Fri 02:51:18 PM 39.6053 -74.2656 56° Northeast 175 201 7,500  Level New York Center
Fri 02:52:00 PM 39.4435 -74.2411 49° Northeast  Level FlightAware Approximate
Fri 02:52:19 PM 39.6278 -74.2075 63° Northeast 175 201 7,500  Level New York Center
Fri 02:53:00 PM 39.4748 -74.1950 49° Northeast  Level FlightAware Approximate
Fri 02:53:19 PM 39.6589 -74.1469 56° Northeast 175 201 7,500  Level New York Center
Fri 02:54:20 PM 39.6933 -74.1028 45° Northeast 175 201 7,500  Level New York Center
Fri 02:55:20 PM 39.7258 -74.0611 45° Northeast 175 201 7,500  Level New York Center
Fri 02:56:21 PM 39.7628 -74.0142 44° Northeast 175 201 7,500  Level New York Center
Fri 02:57:18 PM 39.8036 -73.9647 43° Northeast 180 207 7,500  Level New York Center
Fri 02:58:19 PM 39.8403 -73.9206 43° Northeast 180 207 7,500  Level New York Center
Fri 02:59:19 PM 39.8769 -73.8761 43° Northeast 174 200 7,500  Level New York Center
Fri 03:00:19 PM 39.9092 -73.8342 45° Northeast 174 200 7,500  Level New York Center
Fri 03:01:20 PM 39.9439 -73.7869 46° Northeast 174 200 7,500  Level New York Center
Fri 03:02:18 PM 39.9803 -73.7425 43° Northeast 174 200 7,500  Level New York Center
Fri 03:03:19 PM 40.0214 -73.6903 44° Northeast 179 206 7,500  Level New York Center
Fri 03:04:19 PM 40.0536 -73.6481 45° Northeast 174 200 7,500  Level New York Center
Fri 03:05:20 PM 40.0922 -73.5981 45° Northeast 174 200 7,500  Level New York Center
Fri 03:06:58 PM 40.1486 -73.5286 43° Northeast 177 204 7,500  Level Boston Center
Fri 03:07:59 PM 40.1844 -73.4831 44° Northeast 177 204 7,500  Level Boston Center
Fri 03:09:00 PM 40.2203 -73.4347 46° Northeast 177 204 7,500  Level Boston Center
Fri 03:10:00 PM 40.2583 -73.3917 41° Northeast 171 197 7,500  Level Boston Center
Fri 03:11:00 PM 40.2919 -73.3461 46° Northeast 171 197 7,500  Level Boston Center
Fri 03:11:58 PM 40.3256 -73.3003 46° Northeast 171 197 7,500 -50 Level Boston Center
Fri 03:12:59 PM 40.3614 -73.2517 46° Northeast 171 197 7,400 -280 Descending Boston Center
Fri 03:13:45 PM 40.4000 -73.2000 46° Northeast 196 226 7,000 -396 Descending New York TRACON
Fri 03:14:45 PM 40.4333 -73.1500 49° Northeast 196 226 6,700 -397 Descending New York TRACON
Fri 03:15:46 PM 40.4833 -73.1000 37° Northeast 192 221 6,200 -429 Descending New York TRACON
Fri 03:16:51 PM 40.5167 -73.0500 49° Northeast 184 212 5,800 -528 Descending New York TRACON
Fri 03:17:51 PM 40.5500 -73.0167 37° Northeast 187 215 5,100 -600 Descending New York TRACON
Fri 03:18:51 PM 40.5833 -72.9667 49° Northeast 181 208 4,600 -500 Descending New York TRACON
Fri 03:20:00 PM 40.7880 -72.6923 52° Northeast  Level FlightAware Approximate
Fri 03:27:00 PM 40.8333 -72.6167 52° Northeast  Level FlightAware Approximate
Fri 03:28:00 PM 40.8437 -72.6318 52° Northeast  Level Estimated
Fri 03:29:00 PM 40.8437 -72.6318 52° Northeast  Level Estimated
Fri 03:30:00 PM 40.8437 -72.6318 52° Northeast  Level Estimated

Login

Don't have an account? Register now (free) for customized features, flight alerts, and more!